Time;durP1;ratioP1;P1;durP2;ratioP2;P2;SDS_P1;SDS_P2;PMS_P1;PMS_P2;Temp;Humidity;BMP_temperature;BMP_pressure;BME280_temperature;BME280_humidity;BME280_pressure;Samples;Min_cycle;Max_cycle;Signal;HPM_P1;HPM_P2
2021/04/08 00:00:51;;;;;;;10.97;9.87;;;1.00;99.90;;;;;;5053685;28;20186;-50
2021/04/08 00:03:16;;;;;;;11.00;9.80;;;1.00;99.90;;;;;;5063013;28;20889;-45
2021/04/08 00:05:42;;;;;;;12.30;10.87;;;1.00;99.90;;;;;;5053589;28;20461;-57
2021/04/08 00:08:07;;;;;;;13.73;10.33;;;1.00;99.90;;;;;;5053791;28;20178;-57
2021/04/08 00:10:33;;;;;;;13.00;10.77;;;1.00;99.90;;;;;;5053257;28;20171;-52
2021/04/08 00:12:59;;;;;;;12.73;9.97;;;1.00;99.90;;;;;;5065586;28;20178;-46
2021/04/08 00:15:24;;;;;;;11.47;9.73;;;1.10;99.90;;;;;;5074347;28;20237;-50
2021/04/08 00:17:50;;;;;;;11.20;9.33;;;1.10;99.90;;;;;;5059108;28;20191;-45
2021/04/08 00:20:19;;;;;;;11.33;8.90;;;1.10;99.90;;;;;;5058152;28;20611;-52
2021/04/08 00:22:45;;;;;;;11.27;9.10;;;1.00;99.90;;;;;;5057470;28;20655;-53
2021/04/08 00:25:11;;;;;;;10.33;9.00;;;0.90;99.90;;;;;;5070560;28;20500;-54
2021/04/08 00:27:37;;;;;;;11.13;9.40;;;0.90;99.90;;;;;;5078202;28;20212;-56
2021/04/08 00:30:04;;;;;;;11.50;9.10;;;1.00;99.90;;;;;;5064073;28;20940;-47
2021/04/08 00:32:29;;;;;;;10.60;8.87;;;1.00;99.90;;;;;;5057338;28;20258;-51
2021/04/08 00:34:56;;;;;;;12.13;9.20;;;1.00;99.90;;;;;;5075390;28;20479;-49
2021/04/08 00:37:21;;;;;;;10.30;8.87;;;1.00;99.90;;;;;;5076672;28;20233;-57
2021/04/08 00:39:48;;;;;;;10.97;8.70;;;1.00;99.90;;;;;;5060757;28;20441;-51
2021/04/08 00:42:14;;;;;;;12.60;9.67;;;1.00;99.90;;;;;;5057248;28;20215;-45
2021/04/08 00:44:40;;;;;;;12.03;9.57;;;1.00;99.90;;;;;;5057807;28;20588;-46
2021/04/08 00:47:06;;;;;;;11.53;9.17;;;1.00;99.90;;;;;;5057619;28;21000;-45
2021/04/08 00:49:31;;;;;;;10.20;8.93;;;1.00;99.90;;;;;;5056997;28;20183;-51
2021/04/08 00:51:57;;;;;;;9.83;8.33;;;1.00;99.90;;;;;;5059410;28;20210;-48
2021/04/08 00:54:22;;;;;;;10.07;8.37;;;1.00;99.90;;;;;;5076186;28;20194;-53
2021/04/08 00:56:48;;;;;;;11.37;8.40;;;1.10;99.90;;;;;;5075994;28;20194;-47
2021/04/08 00:59:14;;;;;;;9.53;8.50;;;1.10;99.90;;;;;;5057226;28;20175;-50
2021/04/08 01:01:40;;;;;;;11.33;8.90;;;1.00;99.90;;;;;;5056184;28;20539;-45
2021/04/08 01:04:06;;;;;;;9.57;7.43;;;1.00;99.90;;;;;;5058022;28;20948;-54
2021/04/08 01:06:31;;;;;;;8.87;7.50;;;1.10;99.90;;;;;;5057074;28;20206;-45
2021/04/08 01:08:58;;;;;;;9.10;8.10;;;1.10;99.90;;;;;;5074245;28;20234;-48
2021/04/08 01:11:23;;;;;;;9.43;7.77;;;1.20;99.90;;;;;;5072950;28;20193;-51
2021/04/08 01:13:50;;;;;;;10.57;7.80;;;1.20;99.90;;;;;;5077335;28;20417;-45
2021/04/08 01:16:27;;;;;;;11.33;8.50;;;1.30;99.90;;;;;;5072042;28;20228;-45
2021/04/08 01:19:01;;;;;;;11.73;7.97;;;1.30;99.90;;;;;;5056098;28;20456;-53
2021/04/08 01:21:26;;;;;;;9.77;7.60;;;1.40;99.90;;;;;;5061437;28;20936;-53
2021/04/08 01:24:14;;;;;;;9.13;7.97;;;1.40;99.90;;;;;;5075911;28;20479;-53
2021/04/08 01:27:14;;;;;;;7.97;7.13;;;1.50;99.90;;;;;;5074952;28;20206;-45
2021/04/08 01:30:16;;;;;;;8.33;6.90;;;1.50;99.90;;;;;;5074732;28;20396;-54
2021/04/08 01:32:46;;;;;;;8.47;7.07;;;1.50;99.90;;;;;;5061414;28;20816;-52
2021/04/08 01:35:13;;;;;;;9.43;7.27;;;1.40;99.90;;;;;;5056425;28;20413;-46
2021/04/08 01:38:15;;;;;;;8.67;6.77;;;1.40;99.90;;;;;;5069922;28;20840;-45
2021/04/08 01:40:43;;;;;;;9.77;6.93;;;1.40;99.90;;;;;;5076293;28;20424;-52
2021/04/08 01:43:09;;;;;;;9.40;6.60;;;1.40;99.90;;;;;;5073944;28;20474;-46
2021/04/08 01:45:36;;;;;;;8.83;6.57;;;1.40;99.90;;;;;;5076085;28;20457;-46
2021/04/08 01:48:04;;;;;;;7.90;6.40;;;1.40;99.90;;;;;;5074653;28;20474;-45
2021/04/08 01:50:31;;;;;;;7.13;6.43;;;1.40;99.90;;;;;;5075897;28;20435;-51
2021/04/08 01:52:59;;;;;;;8.10;6.57;;;1.40;99.90;;;;;;5074745;28;20901;-56
2021/04/08 01:55:26;;;;;;;9.13;7.47;;;1.40;99.90;;;;;;5076496;28;20483;-46
2021/04/08 01:57:54;;;;;;;7.43;6.63;;;1.40;99.90;;;;;;5060047;28;20426;-45
2021/04/08 02:00:21;;;;;;;8.47;7.57;;;1.40;99.90;;;;;;5055928;28;20472;-45
2021/04/08 02:02:50;;;;;;;9.90;7.50;;;1.40;99.90;;;;;;5065628;28;20428;-50
2021/04/08 02:05:17;;;;;;;8.17;7.30;;;1.50;99.90;;;;;;5076066;28;20448;-51
2021/04/08 02:07:52;;;;;;;8.37;7.23;;;1.50;99.90;;;;;;5061592;28;20425;-51
2021/04/08 02:10:18;;;;;;;10.07;7.40;;;1.50;99.90;;;;;;5055682;28;20440;-48
2021/04/08 02:12:47;;;;;;;8.67;7.53;;;1.50;99.90;;;;;;5067381;28;20441;-52
2021/04/08 02:15:15;;;;;;;9.73;7.00;;;1.40;99.90;;;;;;5068944;28;20948;-55
2021/04/08 02:17:44;;;;;;;8.10;7.23;;;1.30;99.90;;;;;;5062731;28;20814;-46
2021/04/08 02:20:15;;;;;;;10.87;7.70;;;1.30;99.90;;;;;;5074431;28;20416;-45
2021/04/08 02:22:46;;;;;;;9.93;8.47;;;1.20;99.90;;;;;;5064636;28;20425;-53
2021/04/08 02:25:13;;;;;;;10.90;8.27;;;1.20;99.90;;;;;;5055415;28;20453;-54
2021/04/08 02:27:39;;;;;;;10.33;8.23;;;1.10;99.90;;;;;;5055241;28;20966;-56
2021/04/08 02:30:11;;;;;;;9.60;8.50;;;1.10;99.90;;;;;;5055822;28;20406;-47
2021/04/08 02:32:39;;;;;;;10.37;8.77;;;1.10;99.90;;;;;;5053550;28;20472;-57
2021/04/08 02:35:09;;;;;;;10.57;9.27;;;1.10;99.90;;;;;;5055086;28;20410;-47
2021/04/08 02:37:35;;;;;;;12.13;9.43;;;1.10;99.90;;;;;;5054007;28;20426;-53
2021/04/08 02:40:03;;;;;;;12.97;9.40;;;1.00;99.90;;;;;;5055061;28;20772;-51
2021/04/08 02:42:28;;;;;;;12.23;9.23;;;1.00;99.90;;;;;;5055100;28;20554;-46
2021/04/08 02:44:54;;;;;;;10.10;8.20;;;1.00;99.90;;;;;;5054269;28;20445;-47
2021/04/08 02:47:20;;;;;;;10.20;7.67;;;1.10;99.90;;;;;;5055463;28;20191;-51
2021/04/08 02:49:45;;;;;;;10.13;8.00;;;1.10;99.90;;;;;;5054026;28;20785;-55
2021/04/08 02:52:15;;;;;;;8.60;6.93;;;1.10;99.90;;;;;;5055161;28;20224;-46
2021/04/08 02:54:50;;;;;;;9.80;7.47;;;1.10;99.90;;;;;;5054785;28;20206;-50
2021/04/08 02:57:30;;;;;;;9.30;7.47;;;1.00;99.90;;;;;;5054142;28;20448;-46
2021/04/08 03:00:05;;;;;;;8.13;7.27;;;1.00;99.90;;;;;;5054818;28;20402;-45
2021/04/08 03:02:33;;;;;;;8.17;7.37;;;1.10;99.90;;;;;;5053763;28;20511;-45
2021/04/08 03:04:59;;;;;;;7.67;6.40;;;1.10;99.90;;;;;;5054671;28;20463;-51
2021/04/08 03:07:29;;;;;;;9.23;7.20;;;1.10;99.90;;;;;;5055120;28;20433;-46
2021/04/08 03:09:57;;;;;;;10.03;7.53;;;1.20;99.90;;;;;;5055050;28;20163;-47
2021/04/08 03:12:25;;;;;;;8.10;7.13;;;1.20;99.90;;;;;;5053279;28;20449;-49
2021/04/08 03:14:54;;;;;;;8.17;7.10;;;1.20;99.90;;;;;;5054326;28;20766;-46
2021/04/08 03:17:24;;;;;;;7.47;6.77;;;1.10;99.90;;;;;;5053583;28;20506;-50
2021/04/08 03:19:52;;;;;;;11.53;7.77;;;1.10;99.90;;;;;;5054706;28;20532;-51
2021/04/08 03:22:21;;;;;;;7.93;6.73;;;1.00;99.90;;;;;;5054116;28;20410;-50
2021/04/08 03:24:50;;;;;;;8.37;7.13;;;1.00;99.90;;;;;;5053230;28;20472;-48
2021/04/08 03:27:16;;;;;;;8.63;7.43;;;1.00;99.90;;;;;;5054188;28;20438;-46
2021/04/08 03:29:46;;;;;;;9.17;7.17;;;0.90;99.90;;;;;;5053479;28;20413;-57
2021/04/08 03:32:12;;;;;;;7.93;6.80;;;1.00;99.90;;;;;;5048842;28;20551;-52
2021/04/08 03:34:39;;;;;;;10.53;7.33;;;1.10;99.90;;;;;;5054964;28;20429;-51
2021/04/08 03:37:06;;;;;;;8.33;7.20;;;1.00;99.90;;;;;;5064610;28;20693;-55
2021/04/08 03:39:31;;;;;;;8.23;7.40;;;1.10;99.90;;;;;;5073960;28;20393;-52
2021/04/08 03:41:58;;;;;;;9.17;7.33;;;1.10;99.90;;;;;;5072882;28;20437;-46
2021/04/08 03:44:24;;;;;;;9.13;6.90;;;1.10;99.90;;;;;;5074135;28;20202;-57
2021/04/08 03:46:54;;;;;;;9.07;7.20;;;1.10;99.90;;;;;;5068475;28;20440;-52
2021/04/08 03:49:20;;;;;;;8.83;6.77;;;1.10;99.90;;;;;;5058100;28;20402;-46
2021/04/08 03:51:46;;;;;;;8.53;7.27;;;1.00;99.90;;;;;;5054117;28;20428;-45
2021/04/08 03:54:14;;;;;;;9.37;7.53;;;1.10;99.90;;;;;;5064034;28;20198;-46
2021/04/08 03:56:43;;;;;;;9.57;7.53;;;1.20;99.90;;;;;;5074121;28;20516;-51
2021/04/08 03:59:10;;;;;;;9.97;7.03;;;1.20;99.90;;;;;;5063409;28;20421;-46
2021/04/08 04:01:39;;;;;;;7.80;7.00;;;1.20;99.90;;;;;;5053185;28;20417;-46
2021/04/08 04:04:07;;;;;;;9.50;7.20;;;1.20;99.90;;;;;;5063123;28;20448;-47
2021/04/08 04:06:37;;;;;;;9.43;7.17;;;1.20;99.90;;;;;;5073506;28;20436;-45
2021/04/08 04:09:04;;;;;;;8.40;7.30;;;1.20;99.90;;;;;;5065279;28;20428;-45
2021/04/08 04:11:31;;;;;;;9.27;7.47;;;1.20;99.90;;;;;;5061043;28;20437;-54
2021/04/08 04:14:00;;;;;;;7.57;6.47;;;1.10;99.90;;;;;;5066204;28;20781;-48
2021/04/08 04:16:26;;;;;;;7.37;6.67;;;1.10;99.90;;;;;;5053490;28;20588;-57
2021/04/08 04:18:52;;;;;;;8.47;6.77;;;1.10;99.90;;;;;;5058898;28;20425;-45
2021/04/08 04:21:17;;;;;;;7.80;6.90;;;1.10;99.90;;;;;;5073702;28;20405;-56
2021/04/08 04:23:43;;;;;;;8.00;7.20;;;1.10;99.90;;;;;;5069374;28;20175;-52
2021/04/08 04:26:10;;;;;;;9.13;7.60;;;1.10;99.90;;;;;;5053391;28;20195;-45
2021/04/08 04:28:36;;;;;;;8.30;7.07;;;1.00;99.90;;;;;;5056483;28;20209;-53
2021/04/08 04:31:01;;;;;;;7.47;6.70;;;1.10;99.90;;;;;;5072512;28;20811;-46
2021/04/08 04:33:27;;;;;;;9.47;7.17;;;1.00;99.90;;;;;;5056596;28;20585;-46
2021/04/08 04:35:54;;;;;;;10.07;6.93;;;1.00;99.90;;;;;;5053607;28;20215;-57
2021/04/08 04:38:19;;;;;;;7.93;6.80;;;1.00;99.90;;;;;;5053919;28;20183;-47
2021/04/08 04:40:45;;;;;;;9.17;7.07;;;1.10;99.90;;;;;;5057795;28;20417;-45
2021/04/08 04:43:10;;;;;;;9.73;7.33;;;1.00;99.90;;;;;;5072518;28;20190;-46
2021/04/08 04:45:36;;;;;;;8.40;6.97;;;1.00;99.90;;;;;;5063881;28;20209;-54
2021/04/08 04:48:02;;;;;;;7.30;6.50;;;1.10;99.90;;;;;;5050106;28;20225;-51
2021/04/08 04:50:28;;;;;;;8.37;6.67;;;1.00;99.90;;;;;;5058306;28;20903;-45
2021/04/08 04:52:54;;;;;;;8.23;7.03;;;1.00;99.90;;;;;;5058910;28;20167;-45
2021/04/08 04:55:20;;;;;;;8.07;6.83;;;1.10;99.90;;;;;;5053526;28;20294;-52
2021/04/08 04:57:46;;;;;;;8.30;6.67;;;1.10;99.90;;;;;;5058822;28;20504;-52
2021/04/08 05:00:12;;;;;;;9.03;6.63;;;1.10;99.90;;;;;;5058425;28;20567;-46
2021/04/08 05:02:37;;;;;;;8.40;6.73;;;1.10;99.90;;;;;;5056541;28;20202;-51
2021/04/08 05:05:04;;;;;;;6.73;6.13;;;1.10;99.90;;;;;;5066330;28;20456;-51
2021/04/08 05:07:29;;;;;;;8.77;6.90;;;1.20;99.90;;;;;;5066257;28;20182;-46
2021/04/08 05:09:55;;;;;;;8.17;6.53;;;1.20;99.90;;;;;;5066473;28;20498;-47
2021/04/08 05:12:20;;;;;;;7.17;6.50;;;1.20;99.90;;;;;;5064815;28;20558;-56
2021/04/08 05:14:46;;;;;;;7.77;6.67;;;1.20;99.90;;;;;;5065757;28;20545;-45
2021/04/08 05:17:11;;;;;;;8.10;6.87;;;1.30;99.90;;;;;;5063393;28;20301;-46
2021/04/08 05:19:37;;;;;;;9.20;6.67;;;1.30;99.90;;;;;;5064576;28;20261;-50
2021/04/08 05:22:02;;;;;;;7.77;6.77;;;1.30;99.90;;;;;;5062721;28;20571;-46
2021/04/08 05:24:28;;;;;;;7.70;6.57;;;1.30;99.90;;;;;;5064014;28;20261;-46
2021/04/08 05:26:54;;;;;;;7.67;6.20;;;1.40;99.90;;;;;;5064373;28;20206;-52
2021/04/08 05:29:19;;;;;;;9.37;6.70;;;1.30;99.90;;;;;;5067826;28;20637;-53
2021/04/08 05:31:45;;;;;;;7.47;6.03;;;1.30;99.90;;;;;;5065546;28;20170;-53
2021/04/08 05:34:11;;;;;;;8.80;6.70;;;1.30;99.90;;;;;;5067625;28;20187;-48
2021/04/08 05:36:36;;;;;;;7.70;6.80;;;1.30;99.90;;;;;;5064497;28;20292;-51
2021/04/08 05:39:03;;;;;;;7.20;6.20;;;1.30;99.90;;;;;;5063034;28;20206;-52
2021/04/08 05:41:29;;;;;;;10.40;6.97;;;1.30;99.90;;;;;;5062282;28;20198;-48
2021/04/08 05:43:54;;;;;;;7.70;7.00;;;1.30;99.90;;;;;;5067260;28;20482;-49
2021/04/08 05:46:20;;;;;;;7.97;7.17;;;1.30;99.90;;;;;;5063493;28;20229;-57
2021/04/08 05:48:45;;;;;;;7.07;6.37;;;1.40;99.90;;;;;;5064020;28;20175;-51
2021/04/08 05:51:11;;;;;;;8.57;6.47;;;1.40;99.90;;;;;;5064685;28;20216;-45
2021/04/08 05:53:36;;;;;;;6.77;6.07;;;1.40;99.90;;;;;;5063760;28;20544;-48
2021/04/08 05:56:02;;;;;;;7.60;6.80;;;1.40;99.90;;;;;;5062271;28;20195;-49
2021/04/08 05:58:28;;;;;;;8.83;7.00;;;1.40;99.90;;;;;;5059759;28;20167;-45
2021/04/08 06:00:53;;;;;;;7.27;6.57;;;1.30;99.90;;;;;;5064074;28;20279;-45
2021/04/08 06:03:19;;;;;;;9.07;7.10;;;1.40;99.90;;;;;;5076011;28;20698;-56
2021/04/08 06:05:44;;;;;;;8.43;6.90;;;1.40;99.90;;;;;;5065048;28;20235;-47
2021/04/08 06:08:10;;;;;;;8.50;6.93;;;1.30;99.90;;;;;;5055785;28;20167;-47
2021/04/08 06:10:35;;;;;;;9.80;6.83;;;1.30;99.90;;;;;;5061470;28;20182;-54
2021/04/08 06:13:01;;;;;;;7.40;6.43;;;1.30;99.90;;;;;;5074529;28;20174;-49
2021/04/08 06:15:29;;;;;;;8.33;7.13;;;1.30;99.90;;;;;;5069548;28;20207;-51
2021/04/08 06:17:55;;;;;;;8.13;7.33;;;1.30;99.90;;;;;;5055723;28;20226;-49
2021/04/08 06:20:21;;;;;;;8.13;7.13;;;1.40;99.90;;;;;;5075658;28;20445;-50
2021/04/08 06:22:49;;;;;;;9.97;7.70;;;1.30;99.90;;;;;;5066774;28;20619;-46
2021/04/08 06:25:15;;;;;;;9.77;7.50;;;1.30;99.90;;;;;;5067430;28;20236;-48
2021/04/08 06:27:40;;;;;;;7.13;6.20;;;1.40;99.90;;;;;;5064295;28;20397;-53
2021/04/08 06:30:07;;;;;;;11.83;7.30;;;1.40;99.90;;;;;;5074147;28;20191;-51
2021/04/08 06:32:32;;;;;;;8.77;7.60;;;1.50;99.90;;;;;;5059343;28;20186;-54
2021/04/08 06:34:58;;;;;;;8.00;7.20;;;1.60;99.90;;;;;;5054663;28;20405;-46
2021/04/08 06:37:23;;;;;;;9.17;7.90;;;1.60;99.90;;;;;;5055785;28;20203;-55
2021/04/08 06:39:49;;;;;;;9.10;7.93;;;1.70;99.90;;;;;;5063287;28;20209;-46
2021/04/08 06:42:20;;;;;;;8.80;7.13;;;1.70;99.90;;;;;;5054768;28;20171;-53
2021/04/08 06:44:50;;;;;;;9.40;7.73;;;1.80;99.90;;;;;;5055403;28;20195;-54
2021/04/08 06:47:22;;;;;;;10.10;7.97;;;1.90;99.90;;;;;;5062844;28;20437;-45
2021/04/08 06:49:51;;;;;;;10.10;7.70;;;1.90;99.90;;;;;;5073719;28;20448;-56
2021/04/08 06:52:19;;;;;;;9.23;7.87;;;1.90;99.90;;;;;;5072560;28;20499;-48
2021/04/08 06:54:45;;;;;;;13.97;11.53;;;2.00;99.90;;;;;;5066182;28;20441;-50
2021/04/08 06:57:15;;;;;;;10.33;8.80;;;2.00;99.90;;;;;;5057282;28;20450;-45
2021/04/08 06:59:41;;;;;;;18.43;13.10;;;2.00;99.90;;;;;;5065144;28;20435;-51
2021/04/08 07:02:14;;;;;;;22.00;16.87;;;2.00;99.90;;;;;;5062423;28;20429;-46
2021/04/08 07:04:39;;;;;;;11.73;8.90;;;2.10;99.90;;;;;;5066216;28;20301;-48
2021/04/08 07:07:05;;;;;;;10.07;8.93;;;2.10;99.90;;;;;;5056293;28;20532;-48
2021/04/08 07:09:30;;;;;;;9.13;7.77;;;0.60;99.90;;;;;;5056440;28;20207;-57
2021/04/08 07:11:59;;;;;;;12.47;8.20;;;2.20;99.90;;;;;;5059177;28;20201;-51
2021/04/08 07:14:25;;;;;;;10.87;8.60;;;2.20;99.90;;;;;;5084805;28;20213;-46
2021/04/08 07:16:51;;;;;;;11.77;9.00;;;2.30;99.90;;;;;;5079482;28;20839;-51
2021/04/08 07:19:18;;;;;;;10.03;8.17;;;2.30;99.90;;;;;;5076239;28;20924;-50
2021/04/08 07:21:44;;;;;;;9.40;8.40;;;2.30;99.90;;;;;;5075142;28;20182;-49
2021/04/08 07:24:15;;;;;;;9.53;8.27;;;2.30;99.90;;;;;;5075060;28;20467;-47
2021/04/08 07:27:03;;;;;;;8.90;8.00;;;2.40;99.90;;;;;;5081882;28;20498;-50
2021/04/08 07:29:40;;;;;;;9.87;8.07;;;2.60;99.90;;;;;;5079703;28;20175;-52
2021/04/08 07:32:14;;;;;;;10.67;8.33;;;2.70;99.90;;;;;;5062754;28;20561;-46
2021/04/08 07:34:43;;;;;;;12.90;8.10;;;2.70;99.90;;;;;;5058186;28;20435;-53
2021/04/08 07:37:09;;;;;;;10.90;8.33;;;2.70;99.90;;;;;;5061932;28;20500;-52
2021/04/08 07:39:37;;;;;;;10.47;7.50;;;2.70;99.90;;;;;;5057531;28;20218;-53
2021/04/08 07:42:11;;;;;;;9.73;7.87;;;2.70;99.90;;;;;;5054660;28;20179;-55
2021/04/08 07:44:49;;;;;;;8.47;7.57;;;2.60;99.90;;;;;;5053049;28;20555;-57
2021/04/08 07:47:20;;;;;;;9.43;8.43;;;2.70;99.90;;;;;;5068272;28;20202;-56
2021/04/08 07:49:47;;;;;;;9.47;8.43;;;2.70;99.90;;;;;;5055351;28;20236;-46
2021/04/08 07:52:28;;;;;;;9.47;8.23;;;2.70;99.90;;;;;;5058318;28;20179;-52
2021/04/08 07:55:12;;;;;;;10.03;7.67;;;2.80;99.90;;;;;;5065296;28;20482;-48
2021/04/08 07:57:56;;;;;;;8.70;7.77;;;2.90;99.90;;;;;;5069082;28;20269;-55
2021/04/08 08:00:30;;;;;;;9.77;7.73;;;3.00;99.90;;;;;;5054985;28;20183;-50
2021/04/08 08:02:58;;;;;;;9.37;7.80;;;3.20;99.90;;;;;;5060494;28;20194;-46
2021/04/08 08:05:30;;;;;;;10.17;7.60;;;3.40;99.90;;;;;;5061557;28;20292;-50
2021/04/08 08:08:28;;;;;;;10.03;7.03;;;3.50;99.90;;;;;;5068754;28;20182;-45
2021/04/08 08:11:07;;;;;;;9.17;7.27;;;3.50;99.90;;;;;;4976177;28;20196;-46
2021/04/08 08:13:39;;;;;;;9.50;7.10;;;3.50;99.90;;;;;;4973308;28;20211;-45
2021/04/08 08:16:06;;;;;;;9.37;6.73;;;3.50;99.90;;;;;;4974603;28;20578;-45
2021/04/08 08:18:39;;;;;;;10.77;7.37;;;3.60;99.90;;;;;;4972294;28;20177;-47
2021/04/08 08:21:39;;;;;;;7.70;6.53;;;3.70;99.90;;;;;;4978742;28;20296;-48
2021/04/08 08:24:08;;;;;;;8.87;7.10;;;3.70;99.90;;;;;;4977223;28;20267;-49
2021/04/08 08:26:44;;;;;;;8.07;6.57;;;3.90;99.90;;;;;;4988264;28;20193;-52
2021/04/08 08:29:10;;;;;;;9.60;6.60;;;4.10;99.90;;;;;;4986468;28;20216;-53
2021/04/08 08:31:44;;;;;;;8.33;5.80;;;4.30;99.90;;;;;;4973342;28;20255;-49
2021/04/08 08:34:12;;;;;;;7.27;5.53;;;4.40;99.90;;;;;;4972277;28;20286;-49
2021/04/08 08:36:39;;;;;;;8.57;5.70;;;4.20;99.90;;;;;;4971704;28;20221;-52
2021/04/08 08:39:07;;;;;;;9.63;5.90;;;4.10;99.90;;;;;;4976741;28;20269;-46
2021/04/08 08:41:34;;;;;;;7.33;5.87;;;4.20;99.90;;;;;;4993825;28;20244;-47
2021/04/08 08:44:02;;;;;;;7.53;5.73;;;4.40;99.90;;;;;;4995232;28;20212;-51
2021/04/08 08:46:29;;;;;;;6.87;5.50;;;4.50;99.90;;;;;;4993452;28;20572;-46
2021/04/08 08:48:58;;;;;;;9.10;5.90;;;4.60;99.90;;;;;;5066937;28;20649;-50
2021/04/08 08:51:24;;;;;;;7.17;5.50;;;4.50;99.90;;;;;;5085243;28;20249;-53
2021/04/08 08:53:52;;;;;;;7.20;5.40;;;4.40;99.90;;;;;;5084890;28;20683;-52
2021/04/08 08:56:20;;;;;;;7.67;5.43;;;4.10;99.90;;;;;;5071623;28;20191;-53
2021/04/08 08:58:46;;;;;;;6.80;5.67;;;4.00;99.90;;;;;;5076442;28;20166;-55
2021/04/08 09:01:13;;;;;;;6.50;5.47;;;4.00;99.90;;;;;;5081101;28;20304;-57
2021/04/08 09:03:39;;;;;;;6.87;5.80;;;4.10;99.90;;;;;;5082343;28;20245;-49
2021/04/08 09:06:06;;;;;;;6.40;5.43;;;4.00;99.90;;;;;;5067992;28;20195;-50
2021/04/08 09:08:34;;;;;;;7.00;5.70;;;5.90;99.90;;;;;;5084999;28;20178;-57
2021/04/08 09:11:00;;;;;;;9.33;6.17;;;4.10;99.90;;;;;;5093505;28;20662;-57
2021/04/08 09:13:26;;;;;;;7.83;5.63;;;4.30;99.90;;;;;;5071206;28;20260;-48
2021/04/08 09:15:51;;;;;;;8.93;5.90;;;4.70;99.90;;;;;;5085930;28;20203;-56
2021/04/08 09:18:22;;;;;;;7.50;5.53;;;5.20;99.90;;;;;;5081435;28;21395;-53
2021/04/08 09:20:48;;;;;;;6.77;5.30;;;5.70;99.90;;;;;;5081328;28;20167;-52
2021/04/08 09:23:18;;;;;;;6.90;5.00;;;5.90;99.90;;;;;;5065151;28;20175;-49
2021/04/08 09:25:56;;;;;;;8.40;5.00;;;5.90;99.90;;;;;;5062060;28;20206;-57
2021/04/08 09:28:22;;;;;;;8.50;5.47;;;5.80;99.90;;;;;;5061759;28;20182;-53
2021/04/08 09:31:09;;;;;;;5.20;4.70;;;5.70;99.90;;;;;;5066399;28;20240;-47
2021/04/08 09:33:59;;;;;;;7.73;5.10;;;5.50;99.90;;;;;;5070456;28;20195;-57
2021/04/08 09:36:25;;;;;;;7.37;5.20;;;4.90;99.90;;;;;;5066178;28;20228;-58
2021/04/08 09:38:59;;;;;;;6.80;5.33;;;4.70;99.90;;;;;;5072339;28;20178;-49
2021/04/08 09:41:50;;;;;;;5.70;4.83;;;4.80;99.90;;;;;;5077621;28;20178;-57
2021/04/08 09:44:18;;;;;;;5.30;4.80;;;4.90;99.90;;;;;;5074176;28;20194;-58
2021/04/08 09:47:04;;;;;;;9.40;5.70;;;4.80;99.90;;;;;;5069578;28;20775;-55
2021/04/08 09:49:35;;;;;;;8.67;5.57;;;4.80;99.90;;;;;;5069431;28;20645;-47
2021/04/08 09:52:01;;;;;;;7.03;5.43;;;4.70;99.90;;;;;;5068953;28;20246;-47
2021/04/08 09:54:45;;;;;;;7.47;6.00;;;4.50;99.90;;;;;;5072043;28;20272;-47
2021/04/08 09:57:11;;;;;;;6.50;5.37;;;4.60;99.90;;;;;;5086159;28;20194;-58
2021/04/08 09:59:57;;;;;;;6.00;5.30;;;4.50;99.90;;;;;;5085089;28;20519;-53
2021/04/08 10:02:26;;;;;;;7.47;5.73;;;4.50;99.90;;;;;;5093098;28;20173;-52
2021/04/08 10:05:09;;;;;;;6.47;5.23;;;4.50;99.90;;;;;;5075307;28;20608;-52
2021/04/08 10:07:48;;;;;;;5.87;5.27;;;4.40;99.90;;;;;;5072934;28;20183;-48
2021/04/08 10:10:14;;;;;;;7.60;5.67;;;4.40;99.90;;;;;;5074658;28;20163;-52
2021/04/08 10:12:40;;;;;;;6.33;5.70;;;4.50;99.90;;;;;;5074600;28;20178;-46
2021/04/08 10:15:06;;;;;;;6.63;5.43;;;4.70;99.90;;;;;;5075956;28;20175;-57
2021/04/08 10:17:39;;;;;;;7.17;5.23;;;4.80;99.90;;;;;;5076142;28;20202;-47
2021/04/08 10:20:07;;;;;;;6.73;5.57;;;4.80;99.90;;;;;;5076025;28;20232;-52
2021/04/08 10:22:43;;;;;;;7.87;5.33;;;4.80;99.90;;;;;;5075788;28;20547;-46
2021/04/08 10:25:10;;;;;;;7.27;5.50;;;4.60;99.90;;;;;;5075798;28;20232;-46
2021/04/08 10:27:36;;;;;;;6.47;5.20;;;4.40;99.90;;;;;;5075505;28;20167;-47
2021/04/08 10:30:16;;;;;;;5.80;4.43;;;4.40;99.90;;;;;;5075936;28;20167;-57
2021/04/08 10:32:44;;;;;;;7.70;5.40;;;4.60;99.90;;;;;;5074361;28;20227;-57
2021/04/08 10:35:29;;;;;;;8.00;6.00;;;4.80;99.90;;;;;;5073800;28;20181;-47
2021/04/08 10:38:02;;;;;;;7.37;6.00;;;5.10;99.90;;;;;;5057192;28;20558;-57
2021/04/08 10:40:28;;;;;;;6.50;5.73;;;5.20;99.90;;;;;;5063074;28;20198;-48
2021/04/08 10:43:10;;;;;;;6.77;5.97;;;5.30;99.90;;;;;;5055075;28;20254;-54
2021/04/08 10:45:37;;;;;;;10.17;6.33;;;5.30;99.90;;;;;;5054347;28;20223;-49
2021/04/08 10:48:05;;;;;;;8.33;6.17;;;5.30;99.90;;;;;;5054815;28;20183;-52
2021/04/08 10:50:31;;;;;;;10.17;6.37;;;5.30;99.90;;;;;;5055914;28;20206;-47
2021/04/08 10:52:59;;;;;;;7.43;5.93;;;5.20;99.90;;;;;;5053415;28;20699;-56
2021/04/08 10:55:26;;;;;;;7.53;5.93;;;5.10;99.90;;;;;;5054966;28;20548;-52
2021/04/08 10:57:51;;;;;;;9.67;6.17;;;5.00;99.90;;;;;;5055112;28;20181;-46
2021/04/08 11:00:18;;;;;;;7.90;5.80;;;5.00;99.90;;;;;;5054883;28;20199;-56
2021/04/08 11:02:45;;;;;;;8.40;6.27;;;4.90;99.90;;;;;;5069606;28;20194;-49
2021/04/08 11:05:24;;;;;;;8.33;5.90;;;4.90;99.90;;;;;;5057042;28;20209;-47
2021/04/08 11:07:54;;;;;;;10.40;6.67;;;4.80;99.90;;;;;;5053482;28;20171;-53
2021/04/08 11:10:23;;;;;;;7.30;5.93;;;4.60;99.90;;;;;;5063474;28;20261;-46
2021/04/08 11:12:50;;;;;;;6.57;5.67;;;4.60;99.90;;;;;;5054576;28;20334;-55
2021/04/08 11:15:19;;;;;;;7.97;5.63;;;4.80;99.90;;;;;;5054215;28;20171;-51
2021/04/08 11:17:47;;;;;;;7.77;5.70;;;5.00;99.90;;;;;;5073825;28;20189;-52
2021/04/08 11:20:14;;;;;;;7.57;5.93;;;5.10;99.90;;;;;;5074473;28;20185;-58
2021/04/08 11:22:44;;;;;;;8.67;6.10;;;5.00;99.90;;;;;;5066703;28;20197;-59
2021/04/08 11:25:11;;;;;;;6.47;5.53;;;5.10;99.90;;;;;;5073711;28;20206;-46
2021/04/08 11:27:44;;;;;;;7.30;5.90;;;5.30;99.90;;;;;;5068817;28;20187;-46
2021/04/08 11:30:37;;;;;;;8.17;5.57;;;5.30;99.90;;;;;;5053726;28;20198;-57
2021/04/08 11:33:04;;;;;;;7.87;5.40;;;5.20;99.90;;;;;;5053610;28;20160;-53
2021/04/08 11:35:41;;;;;;;6.43;5.27;;;4.90;99.90;;;;;;5053629;28;20199;-54
2021/04/08 11:38:23;;;;;;;7.37;5.83;;;4.90;99.90;;;;;;5053891;28;20261;-47
2021/04/08 11:40:51;;;;;;;7.87;5.27;;;4.90;99.90;;;;;;5053806;28;20198;-50
2021/04/08 11:43:23;;;;;;;9.10;5.73;;;4.90;99.90;;;;;;5053482;28;20178;-46
2021/04/08 11:45:50;;;;;;;6.60;5.53;;;5.10;99.90;;;;;;5054203;28;20215;-52
2021/04/08 11:48:18;;;;;;;7.33;4.93;;;5.30;99.90;;;;;;5053000;28;20183;-48
2021/04/08 11:50:47;;;;;;;5.07;3.70;;;5.50;99.90;;;;;;5054277;28;20187;-52
2021/04/08 11:53:18;;;;;;;7.20;3.57;;;6.60;99.90;;;;;;5054405;28;20183;-47
2021/04/08 11:55:49;;;;;;;4.53;3.23;;;8.20;99.90;;;;;;5053359;28;20213;-54
2021/04/08 11:58:29;;;;;;;5.83;3.80;;;8.80;99.90;;;;;;5054055;28;20682;-48
2021/04/08 12:01:11;;;;;;;5.10;3.47;;;8.60;99.90;;;;;;5052851;28;20193;-58
2021/04/08 12:03:38;;;;;;;5.50;3.40;;;8.80;99.90;;;;;;5053664;28;20183;-46
2021/04/08 12:06:20;;;;;;;3.87;3.20;;;9.20;99.90;;;;;;5053547;28;20647;-47
2021/04/08 12:08:56;;;;;;;3.57;3.20;;;9.60;99.90;;;;;;5054438;28;20175;-51
2021/04/08 12:11:23;;;;;;;5.40;3.50;;;9.70;98.70;;;;;;5052413;28;20320;-52
2021/04/08 12:14:05;;;;;;;4.83;3.30;;;8.80;98.20;;;;;;5052826;28;20175;-48
2021/04/08 12:16:31;;;;;;;7.03;4.87;;;8.70;99.90;;;;;;5053066;28;20201;-56
2021/04/08 12:18:58;;;;;;;13.17;8.50;;;8.40;99.90;;;;;;5053208;28;20171;-58
2021/04/08 12:21:26;;;;;;;37.97;21.80;;;8.00;99.90;;;;;;5053414;28;20650;-53
2021/04/08 12:23:52;;;;;;;14.27;8.60;;;8.00;99.90;;;;;;5052501;28;20191;-46
2021/04/08 12:26:37;;;;;;;7.10;5.53;;;8.00;99.90;;;;;;5053118;28;20252;-56
2021/04/08 12:29:04;;;;;;;82.73;43.83;;;7.50;99.90;;;;;;5053454;28;20159;-46
2021/04/08 12:31:30;;;;;;;5.40;4.20;;;7.30;99.90;;;;;;5050382;28;20531;-51
2021/04/08 12:33:56;;;;;;;3.47;3.17;;;7.20;99.90;;;;;;5052351;28;20183;-47
2021/04/08 12:36:22;;;;;;;4.80;2.83;;;6.90;99.90;;;;;;5051039;28;20224;-46
2021/04/08 12:38:47;;;;;;;4.27;2.80;;;6.70;98.30;;;;;;5052293;28;20175;-54
2021/04/08 12:41:13;;;;;;;5.10;2.63;;;6.50;99.50;;;;;;5061078;28;20268;-50
2021/04/08 12:43:39;;;;;;;5.00;2.37;;;6.60;99.90;;;;;;5072405;28;20231;-50
2021/04/08 12:46:05;;;;;;;2.50;2.30;;;6.90;99.90;;;;;;5069407;28;20610;-52
2021/04/08 12:48:31;;;;;;;3.17;2.20;;;7.10;98.60;;;;;;5062699;28;20783;-58
2021/04/08 12:50:58;;;;;;;2.63;2.30;;;7.70;99.90;;;;;;5072012;28;20184;-58
2021/04/08 12:53:25;;;;;;;3.10;2.60;;;8.60;98.00;;;;;;5071468;28;20178;-47
2021/04/08 12:55:51;;;;;;;3.93;2.80;;;8.80;94.20;;;;;;5072467;28;20251;-48
2021/04/08 12:58:17;;;;;;;4.53;2.53;;;8.50;95.10;;;;;;5071281;28;20202;-58
2021/04/08 13:00:43;;;;;;;3.70;2.70;;;8.50;95.00;;;;;;5073743;28;20185;-47
2021/04/08 13:03:09;;;;;;;4.40;2.60;;;8.00;92.90;;;;;;5064105;28;20537;-47
2021/04/08 13:05:37;;;;;;;3.03;2.50;;;7.50;95.30;;;;;;5060137;28;20681;-51